sensor_id;sensor_type;location;lat;lon;timestamp;P1;durP1;ratioP1;P2;durP2;ratioP2
22861;SDS011;11598;50.652;6.172;2023-12-04T00:22:48;10.93;;;4.78;;
22861;SDS011;11598;50.652;6.172;2023-12-04T00:32:49;12.40;;;5.60;;
22861;SDS011;11598;50.652;6.172;2023-12-04T00:42:49;10.40;;;5.18;;
22861;SDS011;11598;50.652;6.172;2023-12-04T00:52:50;12.63;;;4.47;;
22861;SDS011;11598;50.652;6.172;2023-12-04T01:02:51;9.45;;;4.72;;
22861;SDS011;11598;50.652;6.172;2023-12-04T01:12:51;9.25;;;4.43;;
22861;SDS011;11598;50.652;6.172;2023-12-04T01:22:51;8.00;;;3.40;;
22861;SDS011;11598;50.652;6.172;2023-12-04T01:32:52;8.52;;;4.70;;
22861;SDS011;11598;50.652;6.172;2023-12-04T01:42:52;7.82;;;3.80;;
22861;SDS011;11598;50.652;6.172;2023-12-04T01:52:53;10.52;;;4.28;;
22861;SDS011;11598;50.652;6.172;2023-12-04T02:02:53;8.48;;;4.15;;
22861;SDS011;11598;50.652;6.172;2023-12-04T02:12:53;10.80;;;5.22;;
22861;SDS011;11598;50.652;6.172;2023-12-04T02:22:54;8.65;;;4.03;;
22861;SDS011;11598;50.652;6.172;2023-12-04T02:32:55;6.57;;;3.60;;
22861;SDS011;11598;50.652;6.172;2023-12-04T02:42:58;11.05;;;4.13;;
22861;SDS011;11598;50.652;6.172;2023-12-04T02:52:59;7.70;;;3.75;;
22861;SDS011;11598;50.652;6.172;2023-12-04T03:02:59;7.80;;;4.18;;
22861;SDS011;11598;50.652;6.172;2023-12-04T03:13:00;9.98;;;4.10;;
22861;SDS011;11598;50.652;6.172;2023-12-04T03:23:00;8.77;;;4.00;;
22861;SDS011;11598;50.652;6.172;2023-12-04T03:33:00;8.60;;;4.28;;
22861;SDS011;11598;50.652;6.172;2023-12-04T03:43:01;8.77;;;3.58;;
22861;SDS011;11598;50.652;6.172;2023-12-04T03:53:01;7.30;;;3.13;;
22861;SDS011;11598;50.652;6.172;2023-12-04T04:03:02;7.65;;;3.58;;
22861;SDS011;11598;50.652;6.172;2023-12-04T04:13:02;7.90;;;3.75;;
22861;SDS011;11598;50.652;6.172;2023-12-04T04:23:03;7.47;;;3.30;;
22861;SDS011;11598;50.652;6.172;2023-12-04T04:33:03;7.40;;;3.50;;
22861;SDS011;11598;50.652;6.172;2023-12-04T04:43:04;6.03;;;3.20;;
22861;SDS011;11598;50.652;6.172;2023-12-04T04:53:05;7.93;;;2.85;;
22861;SDS011;11598;50.652;6.172;2023-12-04T05:03:05;6.57;;;3.25;;
22861;SDS011;11598;50.652;6.172;2023-12-04T05:13:05;5.72;;;2.25;;
22861;SDS011;11598;50.652;6.172;2023-12-04T05:23:07;6.30;;;2.47;;
22861;SDS011;11598;50.652;6.172;2023-12-04T05:33:07;5.25;;;2.30;;
22861;SDS011;11598;50.652;6.172;2023-12-04T05:43:07;4.03;;;1.80;;
22861;SDS011;11598;50.652;6.172;2023-12-04T05:53:08;4.13;;;1.40;;
22861;SDS011;11598;50.652;6.172;2023-12-04T06:03:09;3.47;;;1.40;;
22861;SDS011;11598;50.652;6.172;2023-12-04T06:13:09;3.00;;;1.20;;
22861;SDS011;11598;50.652;6.172;2023-12-04T06:23:09;2.63;;;1.00;;
22861;SDS011;11598;50.652;6.172;2023-12-04T06:33:10;3.13;;;1.23;;
22861;SDS011;11598;50.652;6.172;2023-12-04T06:43:13;2.35;;;0.88;;
22861;SDS011;11598;50.652;6.172;2023-12-04T06:53:16;3.15;;;1.10;;
22861;SDS011;11598;50.652;6.172;2023-12-04T07:03:16;1.67;;;0.70;;
22861;SDS011;11598;50.652;6.172;2023-12-04T07:13:16;2.40;;;0.95;;
22861;SDS011;11598;50.652;6.172;2023-12-04T07:23:17;2.65;;;0.90;;
22861;SDS011;11598;50.652;6.172;2023-12-04T07:33:17;2.92;;;1.05;;
22861;SDS011;11598;50.652;6.172;2023-12-04T07:43:18;2.53;;;1.08;;
22861;SDS011;11598;50.652;6.172;2023-12-04T07:53:18;4.82;;;1.77;;
22861;SDS011;11598;50.652;6.172;2023-12-04T08:03:19;4.75;;;1.85;;
22861;SDS011;11598;50.652;6.172;2023-12-04T08:13:19;4.07;;;1.90;;
22861;SDS011;11598;50.652;6.172;2023-12-04T08:23:20;5.38;;;2.00;;
22861;SDS011;11598;50.652;6.172;2023-12-04T08:33:20;5.05;;;2.40;;
22861;SDS011;11598;50.652;6.172;2023-12-04T08:43:21;5.85;;;2.60;;
22861;SDS011;11598;50.652;6.172;2023-12-04T08:53:21;9.70;;;3.05;;
22861;SDS011;11598;50.652;6.172;2023-12-04T09:03:21;6.00;;;2.83;;
22861;SDS011;11598;50.652;6.172;2023-12-04T09:13:23;9.27;;;3.77;;
22861;SDS011;11598;50.652;6.172;2023-12-04T09:23:24;7.72;;;3.53;;
22861;SDS011;11598;50.652;6.172;2023-12-04T09:33:24;7.57;;;3.15;;
22861;SDS011;11598;50.652;6.172;2023-12-04T09:43:31;8.05;;;3.15;;
22861;SDS011;11598;50.652;6.172;2023-12-04T09:53:32;7.32;;;4.03;;
22861;SDS011;11598;50.652;6.172;2023-12-04T10:03:35;7.90;;;4.03;;
22861;SDS011;11598;50.652;6.172;2023-12-04T10:13:36;8.77;;;4.03;;
22861;SDS011;11598;50.652;6.172;2023-12-04T10:23:37;8.18;;;3.95;;
22861;SDS011;11598;50.652;6.172;2023-12-04T10:33:39;7.95;;;4.38;;
22861;SDS011;11598;50.652;6.172;2023-12-04T10:43:47;8.60;;;4.37;;
22861;SDS011;11598;50.652;6.172;2023-12-04T10:53:48;9.60;;;4.95;;
22861;SDS011;11598;50.652;6.172;2023-12-04T11:03:52;7.32;;;4.00;;
22861;SDS011;11598;50.652;6.172;2023-12-04T11:13:56;7.65;;;4.20;;
22861;SDS011;11598;50.652;6.172;2023-12-04T11:24:01;6.90;;;3.70;;
22861;SDS011;11598;50.652;6.172;2023-12-04T11:34:02;5.00;;;2.70;;
22861;SDS011;11598;50.652;6.172;2023-12-04T11:44:04;5.55;;;2.55;;
22861;SDS011;11598;50.652;6.172;2023-12-04T11:54:17;5.72;;;2.58;;
22861;SDS011;11598;50.652;6.172;2023-12-04T12:04:19;4.90;;;2.15;;
22861;SDS011;11598;50.652;6.172;2023-12-04T12:14:23;3.73;;;1.77;;
22861;SDS011;11598;50.652;6.172;2023-12-04T12:24:24;4.80;;;2.45;;
22861;SDS011;11598;50.652;6.172;2023-12-04T12:34:26;4.03;;;1.80;;
22861;SDS011;11598;50.652;6.172;2023-12-04T12:44:27;3.67;;;1.63;;
22861;SDS011;11598;50.652;6.172;2023-12-04T12:54:28;3.42;;;1.60;;
22861;SDS011;11598;50.652;6.172;2023-12-04T13:04:41;4.72;;;1.92;;
22861;SDS011;11598;50.652;6.172;2023-12-04T13:14:43;4.43;;;1.60;;
22861;SDS011;11598;50.652;6.172;2023-12-04T13:24:43;4.32;;;2.15;;
22861;SDS011;11598;50.652;6.172;2023-12-04T13:34:44;4.13;;;2.40;;
22861;SDS011;11598;50.652;6.172;2023-12-04T13:44:44;4.25;;;2.20;;
22861;SDS011;11598;50.652;6.172;2023-12-04T13:54:44;4.25;;;2.55;;
22861;SDS011;11598;50.652;6.172;2023-12-04T14:04:49;4.65;;;2.70;;
22861;SDS011;11598;50.652;6.172;2023-12-04T14:14:50;5.22;;;2.83;;
22861;SDS011;11598;50.652;6.172;2023-12-04T14:24:57;3.85;;;1.88;;
22861;SDS011;11598;50.652;6.172;2023-12-04T14:34:57;3.97;;;1.75;;
22861;SDS011;11598;50.652;6.172;2023-12-04T14:44:57;3.67;;;1.65;;
22861;SDS011;11598;50.652;6.172;2023-12-04T14:54:58;4.45;;;1.80;;
22861;SDS011;11598;50.652;6.172;2023-12-04T15:05:10;5.03;;;2.37;;
22861;SDS011;11598;50.652;6.172;2023-12-04T15:15:29;5.18;;;2.13;;
22861;SDS011;11598;50.652;6.172;2023-12-04T15:25:45;4.50;;;2.30;;
22861;SDS011;11598;50.652;6.172;2023-12-04T15:35:45;4.80;;;2.35;;
22861;SDS011;11598;50.652;6.172;2023-12-04T15:45:46;5.65;;;2.00;;
22861;SDS011;11598;50.652;6.172;2023-12-04T15:55:46;5.80;;;3.10;;
22861;SDS011;11598;50.652;6.172;2023-12-04T16:05:47;6.90;;;3.08;;
22861;SDS011;11598;50.652;6.172;2023-12-04T16:15:47;5.22;;;2.70;;
22861;SDS011;11598;50.652;6.172;2023-12-04T16:25:48;6.47;;;2.88;;
22861;SDS011;11598;50.652;6.172;2023-12-04T16:35:48;6.57;;;3.03;;
22861;SDS011;11598;50.652;6.172;2023-12-04T16:45:49;5.10;;;2.50;;
22861;SDS011;11598;50.652;6.172;2023-12-04T16:55:49;3.47;;;1.75;;
22861;SDS011;11598;50.652;6.172;2023-12-04T17:05:50;5.85;;;2.30;;
22861;SDS011;11598;50.652;6.172;2023-12-04T17:15:50;5.13;;;2.00;;
22861;SDS011;11598;50.652;6.172;2023-12-04T17:25:50;4.15;;;2.25;;
22861;SDS011;11598;50.652;6.172;2023-12-04T17:35:52;5.40;;;2.40;;
22861;SDS011;11598;50.652;6.172;2023-12-04T17:45:52;4.90;;;2.50;;
22861;SDS011;11598;50.652;6.172;2023-12-04T17:55:53;4.03;;;1.83;;
22861;SDS011;11598;50.652;6.172;2023-12-04T18:05:53;5.43;;;2.78;;
22861;SDS011;11598;50.652;6.172;2023-12-04T18:15:53;6.93;;;3.38;;
22861;SDS011;11598;50.652;6.172;2023-12-04T18:25:54;6.35;;;3.20;;
22861;SDS011;11598;50.652;6.172;2023-12-04T18:35:55;6.35;;;3.40;;
22861;SDS011;11598;50.652;6.172;2023-12-04T18:45:56;5.50;;;3.17;;
22861;SDS011;11598;50.652;6.172;2023-12-04T18:55:57;5.90;;;3.23;;
22861;SDS011;11598;50.652;6.172;2023-12-04T19:05:58;7.00;;;4.50;;
22861;SDS011;11598;50.652;6.172;2023-12-04T19:15:59;6.50;;;3.15;;
22861;SDS011;11598;50.652;6.172;2023-12-04T19:25:59;6.93;;;3.90;;
22861;SDS011;11598;50.652;6.172;2023-12-04T19:36:03;5.70;;;3.00;;
22861;SDS011;11598;50.652;6.172;2023-12-04T19:46:04;5.38;;;2.85;;
22861;SDS011;11598;50.652;6.172;2023-12-04T19:56:08;5.87;;;2.97;;
22861;SDS011;11598;50.652;6.172;2023-12-04T20:06:09;5.38;;;2.38;;
22861;SDS011;11598;50.652;6.172;2023-12-04T20:16:13;5.20;;;2.85;;
22861;SDS011;11598;50.652;6.172;2023-12-04T20:26:14;7.65;;;3.25;;
22861;SDS011;11598;50.652;6.172;2023-12-04T20:36:15;6.30;;;3.08;;
22861;SDS011;11598;50.652;6.172;2023-12-04T20:46:15;5.90;;;2.63;;
22861;SDS011;11598;50.652;6.172;2023-12-04T20:56:18;5.30;;;2.63;;
22861;SDS011;11598;50.652;6.172;2023-12-04T21:06:22;5.68;;;3.38;;
22861;SDS011;11598;50.652;6.172;2023-12-04T21:16:22;4.63;;;2.17;;
22861;SDS011;11598;50.652;6.172;2023-12-04T21:26:23;5.53;;;3.43;;
22861;SDS011;11598;50.652;6.172;2023-12-04T21:36:23;5.68;;;3.00;;
22861;SDS011;11598;50.652;6.172;2023-12-04T21:46:24;6.03;;;3.03;;
22861;SDS011;11598;50.652;6.172;2023-12-04T21:56:24;5.68;;;2.90;;
22861;SDS011;11598;50.652;6.172;2023-12-04T22:06:25;5.63;;;2.80;;
22861;SDS011;11598;50.652;6.172;2023-12-04T22:16:25;5.05;;;2.45;;
22861;SDS011;11598;50.652;6.172;2023-12-04T22:26:25;8.65;;;3.70;;
22861;SDS011;11598;50.652;6.172;2023-12-04T22:36:26;6.40;;;3.30;;
22861;SDS011;11598;50.652;6.172;2023-12-04T22:46:26;5.40;;;2.80;;
22861;SDS011;11598;50.652;6.172;2023-12-04T22:56:26;5.72;;;2.88;;
22861;SDS011;11598;50.652;6.172;2023-12-04T23:06:27;6.63;;;3.78;;
22861;SDS011;11598;50.652;6.172;2023-12-04T23:16:27;7.97;;;3.45;;
22861;SDS011;11598;50.652;6.172;2023-12-04T23:26:28;7.85;;;4.00;;
22861;SDS011;11598;50.652;6.172;2023-12-04T23:36:28;6.45;;;3.33;;
22861;SDS011;11598;50.652;6.172;2023-12-04T23:46:28;7.07;;;3.35;;
22861;SDS011;11598;50.652;6.172;2023-12-04T23:56:29;4.22;;;2.05;;
